createdAt,value
2023-02-17T00:00:40.372Z,10.64
2023-02-17T00:03:08.039Z,10.68
2023-02-17T00:05:35.763Z,10.71
2023-02-17T00:08:03.491Z,10.70
2023-02-17T00:10:32.524Z,10.69
2023-02-17T00:13:00.177Z,10.71
2023-02-17T00:15:27.838Z,10.73
2023-02-17T00:17:55.530Z,10.74
2023-02-17T00:20:23.243Z,10.72
2023-02-17T00:22:50.894Z,10.71
2023-02-17T00:25:18.543Z,10.74
2023-02-17T00:27:47.691Z,10.75
2023-02-17T00:30:16.032Z,10.75
2023-02-17T00:32:43.706Z,10.77
2023-02-17T00:35:11.423Z,10.79
2023-02-17T00:37:40.319Z,10.80
2023-02-17T00:40:09.167Z,10.79
2023-02-17T00:42:36.924Z,10.79
2023-02-17T00:45:06.730Z,10.77
2023-02-17T00:47:34.406Z,10.74
2023-02-17T00:50:02.134Z,10.75
2023-02-17T00:52:29.804Z,10.77
2023-02-17T00:54:57.566Z,10.67
2023-02-17T00:57:26.354Z,10.69
2023-02-17T00:59:54.020Z,10.77
2023-02-17T01:02:23.096Z,10.78
2023-02-17T01:04:50.904Z,10.79
2023-02-17T01:07:18.680Z,10.78
2023-02-17T01:09:46.334Z,10.82
2023-02-17T01:12:14.366Z,10.85
2023-02-17T01:14:42.235Z,10.87
2023-02-17T01:17:09.958Z,10.87
2023-02-17T01:19:39.030Z,10.88
2023-02-17T01:22:06.729Z,10.86
2023-02-17T01:24:34.472Z,10.88
2023-02-17T01:27:02.152Z,10.88
2023-02-17T01:29:29.810Z,10.89
2023-02-17T01:31:57.722Z,10.90
2023-02-17T01:34:25.442Z,10.90
2023-02-17T01:36:54.496Z,10.88
2023-02-17T01:39:22.168Z,10.90
2023-02-17T01:41:49.869Z,10.94
2023-02-17T01:44:20.515Z,10.93
2023-02-17T01:46:49.807Z,10.91
2023-02-17T01:49:32.643Z,10.92
2023-02-17T01:52:06.181Z,10.91
2023-02-17T01:54:39.217Z,10.91
2023-02-17T01:57:07.129Z,10.88
2023-02-17T01:59:34.777Z,10.88
2023-02-17T02:02:05.281Z,10.88
2023-02-17T02:04:36.189Z,10.89
2023-02-17T02:07:07.942Z,10.90
2023-02-17T02:09:38.805Z,10.91
2023-02-17T02:12:18.237Z,10.94
2023-02-17T02:14:46.328Z,10.97
2023-02-17T02:17:21.028Z,10.95
2023-02-17T02:20:04.893Z,10.97
2023-02-17T02:22:43.959Z,10.99
2023-02-17T02:25:24.747Z,10.99
2023-02-17T02:27:58.937Z,10.99
2023-02-17T02:30:46.549Z,11.00
2023-02-17T02:33:24.965Z,11.01
2023-02-17T02:35:58.559Z,10.97
2023-02-17T02:38:29.805Z,11.01
2023-02-17T02:41:01.292Z,11.03
2023-02-17T02:43:30.687Z,11.01
2023-02-17T02:45:58.381Z,11.06
2023-02-17T02:48:27.579Z,11.04
2023-02-17T02:51:07.121Z,11.02
2023-02-17T02:53:46.449Z,11.06
2023-02-17T02:56:23.506Z,11.05
2023-02-17T02:58:58.638Z,11.04
2023-02-17T03:01:31.215Z,11.08
2023-02-17T03:04:06.205Z,11.05
2023-02-17T03:06:39.288Z,11.08
2023-02-17T03:09:10.736Z,11.08
2023-02-17T03:11:38.459Z,11.08
2023-02-17T03:14:07.904Z,11.06
2023-02-17T03:16:36.129Z,11.09
2023-02-17T03:19:05.665Z,11.09
2023-02-17T03:21:37.167Z,11.08
2023-02-17T03:24:05.049Z,11.10
2023-02-17T03:26:32.779Z,11.06
2023-02-17T03:29:00.790Z,11.07
2023-02-17T03:31:30.777Z,11.07
2023-02-17T03:33:58.901Z,11.07
2023-02-17T03:36:29.899Z,11.08
2023-02-17T03:38:58.022Z,11.09
2023-02-17T03:41:26.071Z,11.06
2023-02-17T03:43:53.827Z,11.05
2023-02-17T03:46:21.707Z,11.06
2023-02-17T03:48:49.501Z,11.04
2023-02-17T03:51:20.023Z,11.04
2023-02-17T03:53:50.070Z,11.04
2023-02-17T03:56:18.317Z,11.07
2023-02-17T03:58:46.441Z,11.09
2023-02-17T04:01:14.722Z,11.09
2023-02-17T04:03:42.691Z,11.08
2023-02-17T04:06:11.100Z,11.06
2023-02-17T04:08:39.284Z,11.05
2023-02-17T04:11:09.057Z,11.03
2023-02-17T04:13:36.962Z,11.04
2023-02-17T04:16:06.923Z,11.03
2023-02-17T04:18:35.526Z,11.01
2023-02-17T04:21:03.547Z,11.01
2023-02-17T04:23:31.294Z,10.99
2023-02-17T04:25:59.227Z,11.00
2023-02-17T04:28:28.337Z,11.03
2023-02-17T04:30:56.082Z,11.03
2023-02-17T04:33:23.861Z,11.02
2023-02-17T04:35:51.622Z,11.00
2023-02-17T04:38:19.262Z,10.99
2023-02-17T04:40:46.956Z,11.00
2023-02-17T04:43:14.638Z,10.98
2023-02-17T04:45:43.690Z,10.96
2023-02-17T04:48:11.402Z,10.97
2023-02-17T04:50:39.074Z,10.97
2023-02-17T04:53:06.783Z,10.97
2023-02-17T04:55:34.504Z,10.95
2023-02-17T04:58:02.312Z,10.97
2023-02-17T05:00:30.625Z,10.97
2023-02-17T05:02:59.710Z,10.98
2023-02-17T05:05:27.793Z,10.98
2023-02-17T05:07:55.403Z,10.99
2023-02-17T05:10:24.110Z,10.99
2023-02-17T05:12:52.348Z,10.97
2023-02-17T05:15:20.262Z,11.01
2023-02-17T05:17:47.963Z,11.01
2023-02-17T05:20:17.070Z,11.00
2023-02-17T05:22:44.815Z,10.96
2023-02-17T05:25:12.461Z,10.98
2023-02-17T05:27:40.230Z,11.00
2023-02-17T05:30:08.742Z,10.99
2023-02-17T05:32:36.429Z,10.99
2023-02-17T05:35:04.140Z,11.02
2023-02-17T05:37:33.187Z,11.03
2023-02-17T05:40:00.870Z,11.04
2023-02-17T05:42:29.104Z,11.06
2023-02-17T05:44:56.898Z,11.06
2023-02-17T05:47:26.707Z,11.05
2023-02-17T05:49:55.248Z,11.06
2023-02-17T05:52:22.997Z,11.06
2023-02-17T05:54:52.093Z,11.07
2023-02-17T05:57:19.868Z,11.06
2023-02-17T05:59:47.552Z,11.05
2023-02-17T06:02:15.333Z,11.06
2023-02-17T06:04:43.124Z,11.03
2023-02-17T06:07:11.015Z,10.99
2023-02-17T06:09:38.931Z,10.96
2023-02-17T06:12:08.371Z,11.00
2023-02-17T06:14:36.160Z,10.96
2023-02-17T06:17:04.459Z,10.95
2023-02-17T06:19:32.226Z,10.91
2023-02-17T06:22:00.038Z,10.88
2023-02-17T06:24:27.711Z,10.90
2023-02-17T06:26:55.457Z,10.89
2023-02-17T06:29:24.577Z,10.89
2023-02-17T06:31:52.373Z,10.89
2023-02-17T06:34:20.270Z,10.88
2023-02-17T06:36:47.950Z,10.86
2023-02-17T06:39:15.765Z,10.86
2023-02-17T06:41:52.128Z,10.86
2023-02-17T06:44:19.815Z,10.84
2023-02-17T06:46:48.921Z,10.85
2023-02-17T06:49:16.861Z,10.87
2023-02-17T06:51:44.497Z,10.92
2023-02-17T06:54:12.294Z,10.94
2023-02-17T06:56:40.050Z,10.94
2023-02-17T06:59:07.795Z,10.93
2023-02-17T07:01:35.516Z,10.94
2023-02-17T07:04:04.638Z,10.96
2023-02-17T07:06:32.373Z,10.97
2023-02-17T07:09:00.107Z,10.95
2023-02-17T07:11:31.273Z,10.98
2023-02-17T07:13:59.027Z,10.99
2023-02-17T07:16:27.312Z,10.99
2023-02-17T07:18:55.131Z,11.00
2023-02-17T07:21:24.340Z,11.04
2023-02-17T07:23:52.056Z,11.02
2023-02-17T07:26:19.828Z,11.04
2023-02-17T07:28:47.529Z,11.05
2023-02-17T07:31:17.057Z,11.06
2023-02-17T07:33:45.520Z,11.06
2023-02-17T07:36:15.072Z,11.06
2023-02-17T07:38:44.277Z,10.99
2023-02-17T07:41:13.787Z,11.07
2023-02-17T07:43:41.612Z,11.07
2023-02-17T07:46:10.562Z,11.10
2023-02-17T07:48:38.812Z,11.10
2023-02-17T07:51:07.447Z,11.11
2023-02-17T07:53:35.629Z,11.13
2023-02-17T07:56:05.618Z,11.14
2023-02-17T07:58:33.670Z,11.13
2023-02-17T08:01:06.904Z,11.17
2023-02-17T08:03:34.673Z,11.16
2023-02-17T08:06:02.550Z,11.17
2023-02-17T08:08:47.704Z,11.20
2023-02-17T08:11:35.110Z,11.20
2023-02-17T08:14:03.143Z,11.17
2023-02-17T08:16:31.234Z,11.18
2023-02-17T08:18:59.152Z,11.20
2023-02-17T08:21:28.203Z,11.20
2023-02-17T08:23:56.464Z,11.19
2023-02-17T08:26:26.278Z,11.23
2023-02-17T08:28:54.087Z,11.23
2023-02-17T08:31:24.973Z,11.24
2023-02-17T08:33:53.371Z,11.26
2023-02-17T08:36:22.318Z,11.29
2023-02-17T08:38:51.315Z,11.27
2023-02-17T08:41:21.441Z,11.32
2023-02-17T08:43:51.127Z,11.34
2023-02-17T08:46:19.739Z,11.35
2023-02-17T08:48:48.293Z,11.36
2023-02-17T08:51:18.144Z,11.40
2023-02-17T08:53:46.908Z,11.43
2023-02-17T08:56:15.157Z,11.44
2023-02-17T08:58:42.941Z,11.45
2023-02-17T09:01:12.272Z,11.47
2023-02-17T09:03:40.991Z,11.52
2023-02-17T09:06:09.583Z,11.56
2023-02-17T09:08:39.131Z,11.57
2023-02-17T09:11:09.428Z,11.57
2023-02-17T09:13:37.990Z,11.60
2023-02-17T09:16:06.737Z,11.60
2023-02-17T09:18:36.127Z,11.61
2023-02-17T09:21:07.286Z,11.63
2023-02-17T09:23:35.162Z,11.65
2023-02-17T09:26:05.350Z,11.65
2023-02-17T09:28:33.660Z,11.68
2023-02-17T09:31:09.715Z,11.69
2023-02-17T09:33:38.992Z,11.73
2023-02-17T09:36:08.375Z,11.74
2023-02-17T09:38:36.644Z,11.76
2023-02-17T09:41:09.533Z,11.79
2023-02-17T09:43:39.176Z,11.79
2023-02-17T09:46:11.145Z,11.81
2023-02-17T09:48:40.963Z,11.84
2023-02-17T09:51:13.500Z,11.84
2023-02-17T09:53:45.272Z,11.90
2023-02-17T09:56:19.142Z,11.91
2023-02-17T09:58:49.271Z,11.91
2023-02-17T10:01:19.853Z,11.91
2023-02-17T10:03:51.617Z,11.97
2023-02-17T10:06:22.774Z,11.97
2023-02-17T10:08:53.930Z,11.98
2023-02-17T10:11:27.271Z,11.97
2023-02-17T10:13:58.280Z,12.02
2023-02-17T10:16:31.275Z,12.04
2023-02-17T10:19:02.441Z,12.04
2023-02-17T10:21:36.051Z,12.10
2023-02-17T10:24:03.861Z,12.12
2023-02-17T10:26:48.884Z,12.15
2023-02-17T10:29:26.388Z,12.19
2023-02-17T10:32:04.484Z,12.23
2023-02-17T10:34:37.056Z,12.27
2023-02-17T10:37:06.814Z,12.31
2023-02-17T10:39:44.098Z,12.32
2023-02-17T10:42:16.783Z,12.34
2023-02-17T10:44:45.280Z,12.33
2023-02-17T10:47:13.712Z,12.30
2023-02-17T10:49:46.773Z,12.36
2023-02-17T10:52:16.931Z,12.39
2023-02-17T10:54:48.438Z,12.34
2023-02-17T10:57:16.344Z,12.33
2023-02-17T10:59:44.982Z,12.37
2023-02-17T11:02:18.345Z,12.34
2023-02-17T11:04:49.507Z,12.36
2023-02-17T11:07:18.702Z,12.39
2023-02-17T11:09:48.729Z,12.42
2023-02-17T11:12:19.340Z,12.39
2023-02-17T11:14:48.523Z,12.40
2023-02-17T11:17:22.929Z,12.41
2023-02-17T11:20:03.058Z,12.43
2023-02-17T11:22:37.168Z,12.39
2023-02-17T11:25:07.246Z,12.37
2023-02-17T11:27:35.109Z,12.39
2023-02-17T11:30:15.155Z,12.36
2023-02-17T11:32:42.934Z,12.36
2023-02-17T11:35:25.200Z,12.36
2023-02-17T11:37:53.911Z,12.37
2023-02-17T11:40:26.928Z,12.36
2023-02-17T11:42:59.525Z,12.34
2023-02-17T11:45:29.575Z,12.35
2023-02-17T11:48:09.839Z,12.38
2023-02-17T11:50:43.019Z,12.34
2023-02-17T11:53:21.743Z,12.32
2023-02-17T11:55:56.683Z,12.33
2023-02-17T11:58:31.839Z,12.33
2023-02-17T12:01:05.992Z,12.31
2023-02-17T12:03:46.732Z,12.32
2023-02-17T12:06:19.326Z,12.33
2023-02-17T12:08:57.217Z,12.34
2023-02-17T12:11:33.402Z,12.35
2023-02-17T12:14:20.985Z,12.32
2023-02-17T12:16:52.985Z,12.29
2023-02-17T12:19:34.344Z,12.29
2023-02-17T12:22:15.206Z,12.32
2023-02-17T12:24:51.332Z,12.28
2023-02-17T12:27:28.462Z,12.30
2023-02-17T12:30:10.028Z,12.31
2023-02-17T12:32:50.203Z,12.35
2023-02-17T12:35:21.670Z,12.32
2023-02-17T12:37:54.253Z,12.33
2023-02-17T12:40:32.991Z,12.32
2023-02-17T12:43:02.864Z,12.32
2023-02-17T12:45:38.767Z,12.34
2023-02-17T12:48:11.443Z,12.37
2023-02-17T12:50:40.741Z,12.38
2023-02-17T12:53:15.236Z,12.34
2023-02-17T12:55:48.481Z,12.35
2023-02-17T12:58:18.566Z,12.32
2023-02-17T13:00:49.817Z,12.25
2023-02-17T13:03:17.545Z,12.28
2023-02-17T13:05:49.300Z,12.20
2023-02-17T13:08:21.823Z,12.23
2023-02-17T13:11:01.529Z,12.24
2023-02-17T13:13:31.134Z,12.25
2023-02-17T13:16:07.339Z,12.25
2023-02-17T13:18:37.273Z,12.24
2023-02-17T13:21:17.468Z,12.21
2023-02-17T13:23:58.711Z,12.22
2023-02-17T13:26:28.990Z,12.23
2023-02-17T13:29:11.209Z,12.20
2023-02-17T13:31:48.593Z,12.19
2023-02-17T13:34:27.026Z,12.18
2023-02-17T13:36:54.926Z,12.18
2023-02-17T13:39:36.051Z,12.18
2023-02-17T13:42:04.096Z,12.18
2023-02-17T13:44:33.677Z,12.13
2023-02-17T13:47:03.170Z,12.17
2023-02-17T13:49:35.162Z,12.16
2023-02-17T13:52:10.728Z,12.18
2023-02-17T13:54:41.960Z,12.19
2023-02-17T13:57:23.689Z,12.18
2023-02-17T13:59:51.352Z,12.20
2023-02-17T14:02:35.198Z,12.19
2023-02-17T14:05:13.011Z,12.19
2023-02-17T14:07:41.061Z,12.18
2023-02-17T14:10:20.649Z,12.17
2023-02-17T14:12:49.849Z,12.17
2023-02-17T14:15:18.979Z,12.18
2023-02-17T14:17:46.813Z,12.17
2023-02-17T14:20:32.452Z,12.21
2023-02-17T14:23:04.117Z,12.24
2023-02-17T14:25:35.416Z,12.22
2023-02-17T14:28:03.492Z,12.22
2023-02-17T14:30:33.798Z,12.19
2023-02-17T14:33:06.505Z,12.18
2023-02-17T14:35:35.419Z,12.21
2023-02-17T14:38:17.673Z,12.23
2023-02-17T14:40:46.754Z,12.27
2023-02-17T14:43:14.401Z,12.29
2023-02-17T14:45:42.101Z,12.31
2023-02-17T14:48:10.005Z,12.28
2023-02-17T14:50:42.343Z,12.32
2023-02-17T14:53:13.406Z,12.33
2023-02-17T14:55:47.198Z,12.36
2023-02-17T14:58:19.225Z,12.35
2023-02-17T15:00:47.089Z,12.38
2023-02-17T15:03:14.914Z,12.35
2023-02-17T15:05:42.691Z,12.37
2023-02-17T15:08:12.223Z,12.37
2023-02-17T15:10:40.306Z,12.35
2023-02-17T15:13:14.843Z,12.37
2023-02-17T15:15:44.966Z,12.36
2023-02-17T15:18:13.068Z,12.38
2023-02-17T15:20:42.855Z,12.40
2023-02-17T15:23:14.222Z,12.38
2023-02-17T15:25:42.385Z,12.39
2023-02-17T15:28:14.414Z,12.40
2023-02-17T15:30:42.194Z,12.41
2023-02-17T15:33:12.777Z,12.42
2023-02-17T15:35:41.575Z,12.42
2023-02-17T15:38:12.524Z,12.43
2023-02-17T15:40:40.875Z,12.44
2023-02-17T15:43:14.877Z,12.44
2023-02-17T15:45:42.524Z,12.39
2023-02-17T15:48:13.636Z,12.46
2023-02-17T15:50:41.341Z,12.47
2023-02-17T15:53:09.071Z,12.49
2023-02-17T15:55:36.845Z,12.45
2023-02-17T15:58:05.966Z,12.46
2023-02-17T16:00:36.495Z,12.46
2023-02-17T16:03:04.400Z,12.48
2023-02-17T16:05:33.527Z,12.49
2023-02-17T16:08:01.177Z,12.49
2023-02-17T16:10:29.525Z,12.44
2023-02-17T16:12:58.966Z,12.49
2023-02-17T16:15:28.173Z,12.50
2023-02-17T16:17:58.498Z,12.50
2023-02-17T16:20:28.635Z,12.50
2023-02-17T16:22:56.620Z,12.48
2023-02-17T16:25:24.650Z,12.52
2023-02-17T16:27:53.269Z,12.53
2023-02-17T16:30:23.499Z,12.53
2023-02-17T16:32:52.347Z,12.52
2023-02-17T16:35:23.111Z,12.52
2023-02-17T16:37:54.686Z,12.50
2023-02-17T16:40:23.916Z,12.50
2023-02-17T16:42:51.702Z,12.51
2023-02-17T16:45:21.114Z,12.51
2023-02-17T16:47:51.061Z,12.51
2023-02-17T16:50:24.826Z,12.51
2023-02-17T16:52:53.504Z,12.51
2023-02-17T16:55:23.497Z,12.53
2023-02-17T16:57:52.095Z,12.53
2023-02-17T17:00:22.888Z,12.50
2023-02-17T17:02:50.926Z,12.49
2023-02-17T17:05:21.342Z,12.50
2023-02-17T17:07:51.516Z,12.49
2023-02-17T17:10:21.189Z,12.47
2023-02-17T17:12:48.900Z,12.47
2023-02-17T17:15:17.892Z,12.47
2023-02-17T17:17:47.620Z,12.46
2023-02-17T17:20:26.936Z,12.47
2023-02-17T17:22:55.999Z,12.45
2023-02-17T17:25:23.694Z,12.48
2023-02-17T17:27:51.396Z,12.49
2023-02-17T17:30:22.328Z,12.49
2023-02-17T17:34:40.113Z,12.44
2023-02-17T17:37:07.716Z,12.38
2023-02-17T17:39:35.908Z,12.40
2023-02-17T17:42:03.570Z,12.37
2023-02-17T17:44:31.198Z,12.34
2023-02-17T17:46:58.820Z,12.33
2023-02-17T17:49:26.548Z,12.32
2023-02-17T17:51:55.700Z,12.29
2023-02-17T17:54:23.336Z,12.30
2023-02-17T17:56:51.034Z,12.32
2023-02-17T17:59:18.919Z,12.30
2023-02-17T18:01:46.657Z,12.30
2023-02-17T18:04:14.554Z,12.26
2023-02-17T18:06:44.719Z,12.21
2023-02-17T18:09:30.680Z,12.21
2023-02-17T18:12:00.634Z,12.18
2023-02-17T18:14:28.389Z,12.19
2023-02-17T18:16:56.062Z,12.15
2023-02-17T18:19:23.769Z,12.21
2023-02-17T18:21:51.493Z,12.18
2023-02-17T18:24:20.569Z,12.18
2023-02-17T18:26:48.224Z,12.14
2023-02-17T18:29:15.867Z,12.19
2023-02-17T18:31:43.646Z,12.20
2023-02-17T18:34:11.373Z,12.17
2023-02-17T18:36:39.206Z,12.13
2023-02-17T18:39:06.904Z,12.14
2023-02-17T18:41:36.337Z,12.12
2023-02-17T18:44:05.665Z,12.11
2023-02-17T18:46:34.175Z,12.12
2023-02-17T18:49:01.968Z,12.11
2023-02-17T18:51:29.734Z,12.09
2023-02-17T18:53:59.089Z,12.10
2023-02-17T18:56:29.302Z,12.05
2023-02-17T18:58:58.595Z,12.05
2023-02-17T19:01:28.709Z,12.04
2023-02-17T19:03:56.915Z,12.03
2023-02-17T19:06:26.951Z,12.00
2023-02-17T19:08:55.606Z,12.02
2023-02-17T19:11:24.724Z,12.02
2023-02-17T19:13:52.981Z,11.99
2023-02-17T19:16:24.379Z,11.99
2023-02-17T19:18:52.768Z,11.98
2023-02-17T19:21:20.623Z,11.96
2023-02-17T19:23:48.668Z,11.94
2023-02-17T19:26:17.188Z,11.91
2023-02-17T19:28:45.588Z,11.92
2023-02-17T19:31:15.310Z,11.94
2023-02-17T19:33:45.709Z,11.93
2023-02-17T19:38:09.672Z,11.93
2023-02-17T19:40:37.836Z,11.93
2023-02-17T19:43:05.451Z,11.94
2023-02-17T19:45:33.178Z,11.93
2023-02-17T19:48:00.832Z,11.95
2023-02-17T19:50:28.707Z,11.90
2023-02-17T19:52:56.472Z,11.94
2023-02-17T19:55:25.731Z,11.92
2023-02-17T19:57:53.585Z,11.93
2023-02-17T20:00:21.428Z,11.94
2023-02-17T20:02:49.227Z,11.94
2023-02-17T20:05:17.169Z,11.95
2023-02-17T20:07:44.901Z,11.95
2023-02-17T20:10:13.266Z,11.95
2023-02-17T20:12:42.296Z,11.96
2023-02-17T20:15:10.309Z,11.93
2023-02-17T20:17:39.118Z,11.92
2023-02-17T20:20:08.544Z,11.92
2023-02-17T20:22:36.356Z,11.90
2023-02-17T20:25:04.488Z,11.90
2023-02-17T20:27:32.195Z,11.90
2023-02-17T20:30:02.232Z,11.90
2023-02-17T20:32:30.141Z,11.90
2023-02-17T20:34:57.824Z,11.87
2023-02-17T20:37:25.492Z,11.87
2023-02-17T20:39:53.124Z,11.86
2023-02-17T20:42:20.768Z,11.86
2023-02-17T20:44:50.356Z,11.84
2023-02-17T20:47:19.546Z,11.88
2023-02-17T20:49:47.772Z,11.88
2023-02-17T20:52:15.524Z,11.85
2023-02-17T20:54:44.493Z,11.84
2023-02-17T20:57:15.180Z,11.81
2023-02-17T20:59:43.018Z,11.82
2023-02-17T21:02:12.177Z,11.76
2023-02-17T21:04:41.245Z,11.80
2023-02-17T21:07:10.459Z,11.77
2023-02-17T21:09:38.157Z,11.79
2023-02-17T21:12:07.030Z,11.78
2023-02-17T21:14:34.751Z,11.77
2023-02-17T21:17:02.515Z,11.73
2023-02-17T21:19:30.545Z,11.73
2023-02-17T21:21:59.927Z,11.71
2023-02-17T21:24:27.630Z,11.72
2023-02-17T21:26:55.315Z,11.70
2023-02-17T21:29:23.057Z,11.67
2023-02-17T21:31:52.553Z,11.66
2023-02-17T21:34:20.351Z,11.65
2023-02-17T21:36:48.023Z,11.60
2023-02-17T21:39:17.093Z,11.59
2023-02-17T21:41:44.706Z,11.58
2023-02-17T21:44:32.689Z,11.58
2023-02-17T21:47:00.445Z,11.55
2023-02-17T21:49:28.123Z,11.53
2023-02-17T21:51:55.740Z,11.54
2023-02-17T21:54:24.753Z,11.56
2023-02-17T21:56:52.464Z,11.55
2023-02-17T21:59:20.130Z,11.55
2023-02-17T22:01:47.792Z,11.56
2023-02-17T22:04:15.492Z,11.57
2023-02-17T22:06:43.343Z,11.53
2023-02-17T22:09:13.335Z,11.52
2023-02-17T22:11:43.577Z,11.51
2023-02-17T22:14:13.879Z,11.53
2023-02-17T22:16:41.743Z,11.52
2023-02-17T22:19:12.608Z,11.48
2023-02-17T22:21:40.375Z,11.51
2023-02-17T22:24:08.386Z,11.50
2023-02-17T22:26:36.053Z,11.49
2023-02-17T22:29:05.300Z,11.46
2023-02-17T22:31:33.979Z,11.45
2023-02-17T22:34:03.269Z,11.47
2023-02-17T22:36:33.523Z,11.48
2023-02-17T22:39:01.712Z,11.44
2023-02-17T22:41:29.686Z,11.48
2023-02-17T22:43:57.479Z,11.44
2023-02-17T22:46:27.260Z,11.44
2023-02-17T22:48:56.686Z,11.42
2023-02-17T22:51:26.009Z,11.43
2023-02-17T22:53:53.869Z,11.39
2023-02-17T22:56:22.456Z,11.38
2023-02-17T22:58:53.816Z,11.39
2023-02-17T23:01:21.883Z,11.38
2023-02-17T23:03:53.963Z,11.34
2023-02-17T23:06:23.691Z,11.32
2023-02-17T23:08:51.511Z,11.32
2023-02-17T23:11:41.500Z,11.33
2023-02-17T23:14:09.676Z,11.26
2023-02-17T23:16:37.569Z,11.29
2023-02-17T23:19:08.915Z,11.25
2023-02-17T23:21:36.915Z,11.22
2023-02-17T23:24:05.131Z,11.20
2023-02-17T23:26:32.876Z,11.21
2023-02-17T23:29:00.561Z,11.18
2023-02-17T23:31:28.390Z,11.20
2023-02-17T23:33:56.229Z,11.21
2023-02-17T23:36:25.298Z,11.21
2023-02-17T23:38:52.957Z,11.18
2023-02-17T23:41:20.706Z,11.21
2023-02-17T23:43:48.535Z,11.20
2023-02-17T23:46:16.334Z,11.20
2023-02-17T23:48:44.104Z,11.17
2023-02-17T23:51:16.248Z,11.13
2023-02-17T23:53:45.858Z,11.08
2023-02-17T23:56:15.338Z,11.05
2023-02-17T23:58:43.196Z,10.97
